createdAt,value
2023-02-17T00:02:12.743Z,93447.06
2023-02-17T00:05:16.507Z,93457.16
2023-02-17T00:08:19.929Z,93448.56
2023-02-17T00:11:23.014Z,93465.34
2023-02-17T00:14:26.772Z,93467.38
2023-02-17T00:17:30.877Z,93472.75
2023-02-17T00:20:33.883Z,93465.53
2023-02-17T00:23:37.268Z,93473.50
2023-02-17T00:26:40.378Z,93469.75
2023-02-17T00:29:43.382Z,93469.34
2023-02-17T00:32:47.204Z,93472.34
2023-02-17T00:35:51.212Z,93477.00
2023-02-17T00:38:56.495Z,93475.09
2023-02-17T00:42:00.696Z,93476.16
2023-02-17T00:45:06.090Z,93482.06
2023-02-17T00:48:09.424Z,93484.97
2023-02-17T00:51:17.629Z,93491.69
2023-02-17T00:54:21.363Z,93488.88
2023-02-17T00:57:25.395Z,93495.56
2023-02-17T01:00:29.153Z,93502.72
2023-02-17T01:03:33.249Z,93510.13
2023-02-17T01:06:39.473Z,93503.47
2023-02-17T01:09:43.023Z,93508.41
2023-02-17T01:12:47.223Z,93508.22
2023-02-17T01:15:53.803Z,93521.75
2023-02-17T01:18:57.955Z,93508.22
2023-02-17T01:22:00.987Z,93499.69
2023-02-17T01:25:04.468Z,93511.25
2023-02-17T01:28:11.631Z,93507.19
2023-02-17T01:31:17.165Z,93514.97
2023-02-17T01:34:21.031Z,93516.00
2023-02-17T01:37:24.497Z,93513.84
2023-02-17T01:40:27.451Z,93518.44
2023-02-17T01:43:30.686Z,93526.59
2023-02-17T01:46:35.257Z,93520.75
2023-02-17T01:49:41.536Z,93514.03
2023-02-17T01:52:45.546Z,93512.97
2023-02-17T01:55:49.437Z,93521.38
2023-02-17T01:59:07.660Z,93518.84
2023-02-17T02:02:11.063Z,93521.66
2023-02-17T02:05:19.927Z,93529.56
2023-02-17T02:08:24.272Z,93517.91
2023-02-17T02:11:31.370Z,93518.53
2023-02-17T02:14:34.376Z,93522.72
2023-02-17T02:18:04.850Z,93523.09
2023-02-17T02:21:25.213Z,93529.00
2023-02-17T02:25:01.100Z,93534.16
2023-02-17T02:28:38.922Z,93526.75
2023-02-17T02:32:03.156Z,93524.69
2023-02-17T02:35:30.525Z,93538.72
2023-02-17T02:38:38.046Z,93533.47
2023-02-17T02:41:49.175Z,93533.69
2023-02-17T02:44:52.502Z,93529.41
2023-02-17T02:47:58.343Z,93534.75
2023-02-17T02:51:15.588Z,93545.19
2023-02-17T02:54:43.218Z,93545.94
2023-02-17T02:57:59.387Z,93547.38
2023-02-17T03:01:31.955Z,93543.88
2023-02-17T03:04:40.334Z,93551.06
2023-02-17T03:08:00.034Z,93543.81
2023-02-17T03:11:04.857Z,93541.69
2023-02-17T03:14:16.820Z,93547.19
2023-02-17T03:17:20.352Z,93542.38
2023-02-17T03:20:28.898Z,93552.25
2023-02-17T03:23:33.289Z,93550.25
2023-02-17T03:26:37.431Z,93544.91
2023-02-17T03:29:44.310Z,93547.47
2023-02-17T03:32:47.718Z,93555.63
2023-02-17T03:35:51.332Z,93556.66
2023-02-17T03:38:54.928Z,93545.38
2023-02-17T03:41:58.205Z,93536.97
2023-02-17T03:45:01.868Z,93534.47
2023-02-17T03:48:05.464Z,93538.44
2023-02-17T03:51:27.485Z,93538.00
2023-02-17T03:54:31.263Z,93526.47
2023-02-17T03:57:35.979Z,93529.03
2023-02-17T04:00:39.109Z,93516.50
2023-02-17T04:03:43.002Z,93516.59
2023-02-17T04:06:46.081Z,93519.06
2023-02-17T04:09:49.511Z,93510.84
2023-02-17T04:12:52.513Z,93503.69
2023-02-17T04:15:56.558Z,93497.75
2023-02-17T04:19:00.291Z,93498.44
2023-02-17T04:22:05.283Z,93500.97
2023-02-17T04:25:08.745Z,93495.47
2023-02-17T04:28:12.847Z,93492.03
2023-02-17T04:31:16.574Z,93490.91
2023-02-17T04:34:20.683Z,93477.78
2023-02-17T04:37:24.438Z,93466.88
2023-02-17T04:40:28.201Z,93476.19
2023-02-17T04:43:32.207Z,93476.84
2023-02-17T04:46:35.288Z,93469.81
2023-02-17T04:49:38.618Z,93467.78
2023-02-17T04:52:42.351Z,93466.16
2023-02-17T04:55:50.235Z,93463.88
2023-02-17T04:58:53.938Z,93452.56
2023-02-17T05:01:58.019Z,93436.56
2023-02-17T05:05:01.464Z,93441.75
2023-02-17T05:08:06.062Z,93443.28
2023-02-17T05:11:09.629Z,93438.91
2023-02-17T05:14:13.281Z,93436.50
2023-02-17T05:17:17.236Z,93436.13
2023-02-17T05:20:21.787Z,93441.03
2023-02-17T05:23:25.136Z,93444.81
2023-02-17T05:26:28.599Z,93437.38
2023-02-17T05:29:32.268Z,93423.16
2023-02-17T05:32:35.719Z,93427.78
2023-02-17T05:35:39.269Z,93431.41
2023-02-17T05:38:42.988Z,93426.75
2023-02-17T05:41:45.985Z,93431.81
2023-02-17T05:44:49.359Z,93420.66
2023-02-17T05:47:52.286Z,93423.06
2023-02-17T05:50:55.587Z,93429.44
2023-02-17T05:53:58.525Z,93417.16
2023-02-17T05:57:01.853Z,93417.75
2023-02-17T06:00:06.227Z,93417.19
2023-02-17T06:03:16.071Z,93428.97
2023-02-17T06:06:20.121Z,93405.97
2023-02-17T06:09:24.152Z,93423.22
2023-02-17T06:12:27.042Z,93417.84
2023-02-17T06:15:31.411Z,93426.75
2023-02-17T06:18:34.479Z,93422.53
2023-02-17T06:21:38.094Z,93421.94
2023-02-17T06:24:41.321Z,93411.94
2023-02-17T06:27:45.127Z,93401.28
2023-02-17T06:30:48.228Z,93398.41
2023-02-17T06:33:52.249Z,93404.22
2023-02-17T06:36:56.285Z,93399.28
2023-02-17T06:39:59.635Z,93406.03
2023-02-17T06:43:02.628Z,93390.78
2023-02-17T06:46:06.396Z,93384.25
2023-02-17T06:49:10.323Z,93374.38
2023-02-17T06:52:13.843Z,93394.25
2023-02-17T06:55:17.126Z,93400.25
2023-02-17T06:58:20.456Z,93398.00
2023-02-17T07:01:27.246Z,93389.63
2023-02-17T07:04:30.528Z,93392.25
2023-02-17T07:07:33.569Z,93394.28
2023-02-17T07:10:38.472Z,93383.16
2023-02-17T07:13:41.806Z,93386.53
2023-02-17T07:16:44.793Z,93388.44
2023-02-17T07:19:47.757Z,93378.78
2023-02-17T07:22:50.664Z,93389.53
2023-02-17T07:25:53.677Z,93391.78
2023-02-17T07:28:56.763Z,93397.53
2023-02-17T07:32:00.176Z,93387.28
2023-02-17T07:35:04.043Z,93400.75
2023-02-17T07:38:08.232Z,93393.44
2023-02-17T07:41:19.949Z,93390.13
2023-02-17T07:44:24.144Z,93390.97
2023-02-17T07:47:27.976Z,93394.63
2023-02-17T07:50:30.954Z,93388.44
2023-02-17T07:53:34.678Z,93385.56
2023-02-17T07:56:37.748Z,93390.28
2023-02-17T07:59:41.893Z,93393.19
2023-02-17T08:02:44.914Z,93379.06
2023-02-17T08:05:51.709Z,93382.94
2023-02-17T08:09:14.944Z,93376.59
2023-02-17T08:12:38.999Z,93385.13
2023-02-17T08:15:43.137Z,93373.03
2023-02-17T08:18:46.165Z,93377.91
2023-02-17T08:21:49.715Z,93377.28
2023-02-17T08:24:52.640Z,93377.66
2023-02-17T08:27:56.467Z,93385.91
2023-02-17T08:30:59.610Z,93375.22
2023-02-17T08:34:06.347Z,93379.59
2023-02-17T08:37:10.552Z,93385.81
2023-02-17T08:40:15.165Z,93381.84
2023-02-17T08:43:18.559Z,93395.97
2023-02-17T08:46:22.847Z,93386.03
2023-02-17T08:49:29.457Z,93403.53
2023-02-17T08:52:34.731Z,93396.44
2023-02-17T08:55:48.894Z,93395.19
2023-02-17T08:58:53.650Z,93395.69
2023-02-17T09:01:57.549Z,93389.97
2023-02-17T09:05:01.229Z,93394.72
2023-02-17T09:08:05.318Z,93398.69
2023-02-17T09:11:09.791Z,93397.56
2023-02-17T09:14:13.017Z,93392.47
2023-02-17T09:17:17.118Z,93394.25
2023-02-17T09:20:25.029Z,93400.03
2023-02-17T09:23:28.936Z,93398.25
2023-02-17T09:26:32.258Z,93399.16
2023-02-17T09:29:37.756Z,93393.06
2023-02-17T09:32:44.769Z,93391.75
2023-02-17T09:35:49.920Z,93392.09
2023-02-17T09:38:54.158Z,93397.31
2023-02-17T09:41:58.806Z,93387.34
2023-02-17T09:45:06.680Z,93393.09
2023-02-17T09:48:14.288Z,93394.38
2023-02-17T09:51:28.648Z,93396.34
2023-02-17T09:54:54.609Z,93400.69
2023-02-17T09:58:08.408Z,93398.19
2023-02-17T10:01:20.098Z,93408.22
2023-02-17T10:04:42.194Z,93404.72
2023-02-17T10:07:55.495Z,93411.91
2023-02-17T10:11:23.903Z,93401.38
2023-02-17T10:14:43.763Z,93407.22
2023-02-17T10:18:21.961Z,93413.66
2023-02-17T10:21:32.162Z,93421.66
2023-02-17T10:24:36.160Z,93410.50
2023-02-17T10:28:05.531Z,93418.38
2023-02-17T10:31:16.169Z,93422.38
2023-02-17T10:34:42.732Z,93422.56
2023-02-17T10:38:03.987Z,93425.72
2023-02-17T10:41:13.592Z,93422.78
2023-02-17T10:44:24.051Z,93426.13
2023-02-17T10:47:27.425Z,93424.31
2023-02-17T10:50:31.665Z,93420.16
2023-02-17T10:53:40.249Z,93423.16
2023-02-17T10:56:48.921Z,93424.25
2023-02-17T10:59:53.277Z,93433.91
2023-02-17T11:02:56.503Z,93430.91
2023-02-17T11:06:02.180Z,93435.09
2023-02-17T11:09:17.662Z,93425.25
2023-02-17T11:12:44.967Z,93427.41
2023-02-17T11:15:48.826Z,93422.66
2023-02-17T11:18:54.885Z,93423.91
2023-02-17T11:22:00.299Z,93428.38
2023-02-17T11:25:27.623Z,93422.97
2023-02-17T11:28:31.515Z,93426.06
2023-02-17T11:31:35.118Z,93435.91
2023-02-17T11:34:40.660Z,93430.47
2023-02-17T11:37:44.469Z,93427.66
2023-02-17T11:41:02.598Z,93428.97
2023-02-17T11:44:10.049Z,93434.16
2023-02-17T11:47:22.323Z,93430.66
2023-02-17T11:51:00.957Z,93432.50
2023-02-17T11:54:27.088Z,93436.00
2023-02-17T11:57:36.980Z,93437.66
2023-02-17T12:00:58.573Z,93431.19
2023-02-17T12:04:19.354Z,93434.13
2023-02-17T12:07:55.062Z,93435.91
2023-02-17T12:11:03.490Z,93432.75
2023-02-17T12:14:24.034Z,93430.91
2023-02-17T12:17:52.322Z,93435.97
2023-02-17T12:21:12.705Z,93440.00
2023-02-17T12:24:22.117Z,93448.91
2023-02-17T12:27:46.560Z,93440.19
2023-02-17T12:30:53.798Z,93431.84
2023-02-17T12:34:20.714Z,93432.53
2023-02-17T12:37:29.932Z,93435.81
2023-02-17T12:40:48.494Z,93430.78
2023-02-17T12:44:00.499Z,93432.97
2023-02-17T12:47:18.293Z,93432.22
2023-02-17T12:50:36.432Z,93436.66
2023-02-17T12:53:48.603Z,93440.53
2023-02-17T12:57:04.099Z,93432.81
2023-02-17T13:00:21.934Z,93426.66
2023-02-17T13:03:26.254Z,93430.56
2023-02-17T13:06:43.717Z,93432.47
2023-02-17T13:09:48.863Z,93431.06
2023-02-17T13:13:02.322Z,93430.38
2023-02-17T13:16:14.459Z,93427.78
2023-02-17T13:19:29.473Z,93423.91
2023-02-17T13:22:34.174Z,93422.06
2023-02-17T13:25:37.929Z,93409.94
2023-02-17T13:28:42.716Z,93415.72
2023-02-17T13:31:58.108Z,93416.84
2023-02-17T13:35:31.617Z,93419.44
2023-02-17T13:38:35.527Z,93416.13
2023-02-17T13:41:49.960Z,93412.44
2023-02-17T13:44:53.664Z,93409.00
2023-02-17T13:47:59.604Z,93417.09
2023-02-17T13:51:24.718Z,93415.69
2023-02-17T13:54:27.844Z,93407.84
2023-02-17T13:57:33.926Z,93410.31
2023-02-17T14:00:38.212Z,93411.38
2023-02-17T14:03:41.428Z,93399.97
2023-02-17T14:06:44.912Z,93408.38
2023-02-17T14:09:55.122Z,93404.81
2023-02-17T14:12:59.810Z,93404.28
2023-02-17T14:16:03.612Z,93410.47
2023-02-17T14:19:14.489Z,93407.31
2023-02-17T14:22:36.405Z,93409.94
2023-02-17T14:25:42.744Z,93408.44
2023-02-17T14:28:55.026Z,93404.00
2023-02-17T14:31:58.136Z,93413.44
2023-02-17T14:35:13.368Z,93411.19
2023-02-17T14:38:22.500Z,93406.09
2023-02-17T14:41:26.833Z,93402.91
2023-02-17T14:44:30.588Z,93399.66
2023-02-17T14:47:33.663Z,93389.19
2023-02-17T14:50:42.807Z,93387.47
2023-02-17T14:53:47.257Z,93393.47
2023-02-17T14:57:06.649Z,93397.88
2023-02-17T15:00:15.694Z,93403.25
2023-02-17T15:03:19.519Z,93392.19
2023-02-17T15:06:37.551Z,93383.53
2023-02-17T15:09:42.916Z,93385.59
2023-02-17T15:12:46.567Z,93381.41
2023-02-17T15:15:50.617Z,93391.38
2023-02-17T15:18:54.354Z,93377.03
2023-02-17T15:22:01.829Z,93386.22
2023-02-17T15:25:16.218Z,93385.88
2023-02-17T15:28:20.616Z,93380.50
2023-02-17T15:31:26.449Z,93378.47
2023-02-17T15:34:34.649Z,93372.44
2023-02-17T15:37:38.312Z,93371.75
2023-02-17T15:40:42.785Z,93368.66
2023-02-17T15:43:48.410Z,93364.88
2023-02-17T15:46:55.178Z,93362.22
2023-02-17T15:49:58.681Z,93361.72
2023-02-17T15:53:03.099Z,93356.59
2023-02-17T15:56:31.462Z,93346.47
2023-02-17T15:59:36.220Z,93358.97
2023-02-17T16:02:39.469Z,93360.31
2023-02-17T16:05:43.111Z,93350.38
2023-02-17T16:08:47.250Z,93351.25
2023-02-17T16:11:53.574Z,93362.75
2023-02-17T16:14:58.571Z,93360.34
2023-02-17T16:18:01.633Z,93363.44
2023-02-17T16:21:05.122Z,93348.75
2023-02-17T16:24:08.325Z,93346.00
2023-02-17T16:27:17.017Z,93350.66
2023-02-17T16:30:24.233Z,93357.97
2023-02-17T16:33:28.359Z,93360.34
2023-02-17T16:36:35.180Z,93352.19
2023-02-17T16:39:40.759Z,93352.19
2023-02-17T16:42:43.880Z,93367.84
2023-02-17T16:45:51.764Z,93361.50
2023-02-17T16:48:55.942Z,93360.81
2023-02-17T16:52:05.154Z,93364.53
2023-02-17T16:55:09.012Z,93358.94
2023-02-17T16:58:20.953Z,93363.88
2023-02-17T17:01:24.367Z,93356.47
2023-02-17T17:04:29.082Z,93355.34
2023-02-17T17:07:33.283Z,93348.34
2023-02-17T17:10:40.816Z,93350.44
2023-02-17T17:13:45.876Z,93346.78
2023-02-17T17:16:56.538Z,93341.00
2023-02-17T17:19:59.478Z,93339.84
2023-02-17T17:23:05.510Z,93330.09
2023-02-17T17:26:21.061Z,93335.69
2023-02-17T17:29:24.856Z,93337.09
2023-02-17T17:32:27.949Z,93345.03
2023-02-17T17:35:33.005Z,93332.00
2023-02-17T17:38:36.618Z,93329.91
2023-02-17T17:41:40.303Z,93326.72
2023-02-17T17:44:44.211Z,93332.38
2023-02-17T17:47:47.287Z,93331.00
2023-02-17T17:50:51.013Z,93331.00
2023-02-17T17:53:55.513Z,93321.41
2023-02-17T17:56:59.267Z,93327.03
2023-02-17T18:00:03.308Z,93335.63
2023-02-17T18:03:06.728Z,93316.53
2023-02-17T18:06:19.292Z,93324.25
2023-02-17T18:09:32.274Z,93328.69
2023-02-17T18:12:38.653Z,93308.88
2023-02-17T18:15:42.447Z,93313.31
2023-02-17T18:18:46.090Z,93312.84
2023-02-17T18:21:50.621Z,93307.00
2023-02-17T18:24:54.207Z,93304.22
2023-02-17T18:27:58.022Z,93299.06
2023-02-17T18:31:09.087Z,93299.56
2023-02-17T18:34:12.618Z,93289.47
2023-02-17T18:37:16.840Z,93285.69
2023-02-17T18:40:22.735Z,93292.94
2023-02-17T18:43:25.957Z,93282.28
2023-02-17T18:46:29.660Z,93280.59
2023-02-17T18:49:33.462Z,93279.91
2023-02-17T18:52:38.626Z,93286.41
2023-02-17T18:55:41.558Z,93274.00
2023-02-17T18:58:44.613Z,93274.97
2023-02-17T19:01:48.806Z,93263.63
2023-02-17T19:04:56.348Z,93274.78
2023-02-17T19:08:00.372Z,93269.97
2023-02-17T19:11:04.194Z,93268.31
2023-02-17T19:14:08.278Z,93274.81
2023-02-17T19:17:12.585Z,93268.28
2023-02-17T19:20:17.948Z,93265.91
2023-02-17T19:23:20.885Z,93263.16
2023-02-17T19:26:24.456Z,93271.78
2023-02-17T19:29:27.548Z,93271.78
2023-02-17T19:32:30.933Z,93260.75
2023-02-17T19:35:34.655Z,93254.63
2023-02-17T19:38:38.546Z,93259.34
2023-02-17T19:41:41.866Z,93258.22
2023-02-17T19:44:45.046Z,93253.75
2023-02-17T19:47:48.647Z,93246.00
2023-02-17T19:50:58.450Z,93243.94
2023-02-17T19:54:03.780Z,93249.78
2023-02-17T19:57:07.552Z,93246.28
2023-02-17T20:00:11.152Z,93249.56
2023-02-17T20:03:14.102Z,93242.97
2023-02-17T20:06:23.599Z,93234.31
2023-02-17T20:09:26.687Z,93227.31
2023-02-17T20:12:30.799Z,93214.88
2023-02-17T20:15:34.565Z,93215.50
2023-02-17T20:18:43.248Z,93212.41
2023-02-17T20:21:46.942Z,93214.97
2023-02-17T20:24:51.010Z,93205.16
2023-02-17T20:27:54.522Z,93201.72
2023-02-17T20:30:58.553Z,93200.09
2023-02-17T20:34:04.051Z,93200.53
2023-02-17T20:37:09.531Z,93190.97
2023-02-17T20:40:13.422Z,93185.16
2023-02-17T20:43:17.616Z,93185.56
2023-02-17T20:46:25.823Z,93193.94
2023-02-17T20:49:29.751Z,93181.09
2023-02-17T20:52:33.486Z,93180.44
2023-02-17T20:55:36.818Z,93174.22
2023-02-17T20:58:41.182Z,93176.75
2023-02-17T21:01:45.945Z,93172.16
2023-02-17T21:04:50.385Z,93158.63
2023-02-17T21:07:54.579Z,93167.41
2023-02-17T21:10:57.564Z,93158.13
2023-02-17T21:14:01.810Z,93154.13
2023-02-17T21:17:04.930Z,93161.19
2023-02-17T21:20:11.625Z,93163.72
2023-02-17T21:23:16.352Z,93147.28
2023-02-17T21:26:19.813Z,93158.22
2023-02-17T21:29:23.501Z,93158.91
2023-02-17T21:32:27.394Z,93166.47
2023-02-17T21:35:30.442Z,93150.31
2023-02-17T21:38:33.569Z,93159.94
2023-02-17T21:41:37.742Z,93146.44
2023-02-17T21:44:52.898Z,93152.91
2023-02-17T21:47:57.510Z,93151.44
2023-02-17T21:51:12.597Z,93147.69
2023-02-17T21:54:16.680Z,93150.47
2023-02-17T21:57:19.741Z,93138.88
2023-02-17T22:00:23.533Z,93151.66
2023-02-17T22:03:26.578Z,93144.69
2023-02-17T22:06:36.842Z,93136.09
2023-02-17T22:09:40.653Z,93131.19
2023-02-17T22:12:45.099Z,93133.31
2023-02-17T22:15:57.828Z,93128.41
2023-02-17T22:19:02.433Z,93125.53
2023-02-17T22:22:06.191Z,93119.72
2023-02-17T22:25:09.527Z,93116.25
2023-02-17T22:28:14.492Z,93121.41
2023-02-17T22:31:21.403Z,93072.19
2023-02-17T22:34:26.625Z,93096.81
2023-02-17T22:37:30.323Z,93106.34
2023-02-17T22:40:34.558Z,93102.38
2023-02-17T22:43:39.431Z,93101.22
2023-02-17T22:46:42.519Z,93101.97
2023-02-17T22:49:45.457Z,93084.75
2023-02-17T22:52:49.684Z,93086.13
2023-02-17T22:55:54.818Z,93088.81
2023-02-17T22:59:01.551Z,93086.47
2023-02-17T23:02:04.591Z,93073.16
2023-02-17T23:05:08.328Z,93090.25
2023-02-17T23:08:12.381Z,93076.06
2023-02-17T23:11:17.995Z,93083.28
2023-02-17T23:14:32.043Z,93086.72
2023-02-17T23:17:54.968Z,93080.19
2023-02-17T23:20:59.570Z,93081.34
2023-02-17T23:24:03.794Z,93078.25
2023-02-17T23:27:07.253Z,93089.88
2023-02-17T23:30:12.505Z,93090.72
2023-02-17T23:33:17.745Z,93078.66
2023-02-17T23:36:20.698Z,93076.31
2023-02-17T23:39:23.784Z,93081.44
2023-02-17T23:42:26.913Z,93078.66
2023-02-17T23:45:30.424Z,93065.59
2023-02-17T23:48:33.398Z,93073.94
2023-02-17T23:51:36.769Z,93076.69
2023-02-17T23:54:39.817Z,93071.53
2023-02-17T23:57:42.762Z,93080.59
